createdAt,value
2018-05-21T00:00:51.338Z,92.30
2018-05-21T00:03:18.782Z,91.90
2018-05-21T00:05:46.218Z,91.50
2018-05-21T00:08:14.426Z,91.00
2018-05-21T00:10:41.861Z,90.90
2018-05-21T00:13:10.082Z,91.50
2018-05-21T00:15:37.520Z,91.50
2018-05-21T00:18:04.961Z,91.70
2018-05-21T00:20:32.406Z,91.60
2018-05-21T00:23:00.618Z,90.80
2018-05-21T00:25:28.058Z,90.80
2018-05-21T00:27:55.506Z,90.80
2018-05-21T00:30:22.953Z,90.70
2018-05-21T00:32:51.159Z,91.00
2018-05-21T00:35:18.594Z,91.00
2018-05-21T00:37:46.038Z,91.00
2018-05-21T00:40:14.243Z,91.40
2018-05-21T00:42:41.670Z,91.40
2018-05-21T00:45:09.895Z,91.30
2018-05-21T00:47:37.329Z,91.20
2018-05-21T00:50:04.774Z,91.30
2018-05-21T00:52:32.210Z,91.50
2018-05-21T00:55:12.357Z,91.50
2018-05-21T00:57:39.786Z,91.50
2018-05-21T01:00:07.242Z,91.90
2018-05-21T01:02:34.686Z,92.10
2018-05-21T01:05:02.136Z,92.30
2018-05-21T01:07:29.570Z,91.80
2018-05-21T01:09:57.019Z,92.20
2018-05-21T01:12:24.466Z,92.50
2018-05-21T01:14:52.679Z,92.40
2018-05-21T01:17:20.114Z,92.40
2018-05-21T01:19:47.557Z,92.10
2018-05-21T01:22:15.762Z,91.70
2018-05-21T01:24:43.216Z,91.70
2018-05-21T01:27:10.648Z,91.80
2018-05-21T01:29:38.870Z,91.90
2018-05-21T01:32:06.309Z,91.90
2018-05-21T01:34:33.759Z,92.30
2018-05-21T01:37:01.210Z,92.60
2018-05-21T01:39:28.733Z,92.60
2018-05-21T01:41:56.167Z,93.00
2018-05-21T01:44:23.629Z,92.90
2018-05-21T01:46:51.068Z,93.10
2018-05-21T01:49:18.525Z,93.10
2018-05-21T01:51:45.955Z,93.10
2018-05-21T01:54:13.655Z,93.00
2018-05-21T01:56:41.078Z,92.50
2018-05-21T01:59:08.535Z,92.40
2018-05-21T02:01:35.971Z,92.60
2018-05-21T02:04:04.193Z,92.90
2018-05-21T02:06:31.638Z,92.90
2018-05-21T02:08:59.075Z,92.30
2018-05-21T02:11:26.517Z,92.60
2018-05-21T02:13:54.738Z,92.70
2018-05-21T02:16:22.194Z,92.60
2018-05-21T02:18:49.627Z,92.90
2018-05-21T02:21:17.299Z,92.90
2018-05-21T02:23:44.728Z,92.50
2018-05-21T02:26:12.942Z,92.40
2018-05-21T02:28:40.381Z,92.40
2018-05-21T02:31:07.834Z,92.10
2018-05-21T02:33:35.271Z,92.20
2018-05-21T02:36:03.489Z,92.80
2018-05-21T02:38:30.940Z,92.80
2018-05-21T02:40:58.386Z,93.00
2018-05-21T02:43:25.834Z,93.00
2018-05-21T02:45:53.280Z,93.10
2018-05-21T02:48:21.487Z,93.00
2018-05-21T02:50:48.940Z,93.30
2018-05-21T02:53:16.370Z,93.20
2018-05-21T02:55:43.819Z,93.20
2018-05-21T02:58:12.026Z,93.00
2018-05-21T03:00:39.483Z,92.90
2018-05-21T03:03:09.639Z,92.90
2018-05-21T03:05:37.082Z,92.90
2018-05-21T03:08:04.515Z,92.60
2018-05-21T03:10:31.968Z,92.10
2018-05-21T03:12:59.403Z,92.00
2018-05-21T03:15:27.606Z,92.60
2018-05-21T03:17:55.052Z,92.60
2018-05-21T03:20:23.479Z,92.10
2018-05-21T03:22:50.917Z,92.00
2018-05-21T03:25:18.366Z,92.00
2018-05-21T03:27:45.819Z,92.50
2018-05-21T03:30:13.254Z,92.80
2018-05-21T03:32:40.710Z,92.80
2018-05-21T03:35:08.150Z,92.50
2018-05-21T03:37:36.371Z,93.10
2018-05-21T03:40:03.814Z,93.10
2018-05-21T03:42:31.262Z,93.20
2018-05-21T03:44:58.702Z,92.70
2018-05-21T03:47:26.914Z,92.80
2018-05-21T03:49:54.354Z,92.70
2018-05-21T03:52:21.797Z,92.80
2018-05-21T03:54:50.005Z,93.00
2018-05-21T03:57:17.451Z,93.00
2018-05-21T04:02:58.455Z,93.10
2018-05-21T04:05:28.062Z,92.90
2018-05-21T04:07:55.507Z,92.70
2018-05-21T04:10:22.949Z,92.30
2018-05-21T04:12:51.151Z,92.10
2018-05-21T04:15:18.586Z,92.10
2018-05-21T04:17:46.799Z,92.20
2018-05-21T04:20:14.241Z,92.20
2018-05-21T04:22:41.695Z,92.70
2018-05-21T04:25:09.128Z,92.70
2018-05-21T04:27:37.346Z,92.90
2018-05-21T04:30:04.783Z,92.90
2018-05-21T04:32:32.231Z,92.90
2018-05-21T04:34:59.666Z,92.40
2018-05-21T04:37:27.888Z,92.70
2018-05-21T04:39:55.326Z,92.70
2018-05-21T04:42:22.783Z,92.60
2018-05-21T04:44:50.230Z,92.50
2018-05-21T04:47:17.681Z,93.00
2018-05-21T04:49:45.881Z,92.30
2018-05-21T04:52:13.330Z,92.30
2018-05-21T04:54:40.778Z,92.60
2018-05-21T04:57:08.231Z,92.50
2018-05-21T04:59:36.444Z,92.30
2018-05-21T05:02:03.886Z,92.30
2018-05-21T05:04:31.343Z,92.00
2018-05-21T05:06:58.778Z,91.90
2018-05-21T05:09:26.238Z,92.20
2018-05-21T05:11:54.434Z,91.70
2018-05-21T05:14:21.895Z,91.70
2018-05-21T05:16:49.339Z,91.60
2018-05-21T05:19:16.793Z,91.70
2018-05-21T05:21:44.231Z,92.30
2018-05-21T05:24:12.447Z,92.00
2018-05-21T05:26:39.899Z,92.00
2018-05-21T05:29:07.346Z,92.30
2018-05-21T05:31:34.790Z,92.50
2018-05-21T05:34:02.242Z,92.30
2018-05-21T05:36:30.447Z,92.40
2018-05-21T05:38:57.900Z,92.30
2018-05-21T05:41:25.339Z,92.00
2018-05-21T05:43:52.783Z,92.00
2018-05-21T05:46:20.990Z,92.40
2018-05-21T05:48:48.518Z,92.40
2018-05-21T05:51:15.885Z,92.60
2018-05-21T05:53:43.334Z,92.40
2018-05-21T05:56:11.460Z,92.30
2018-05-21T05:58:38.909Z,92.10
2018-05-21T06:01:06.349Z,91.90
2018-05-21T06:03:33.811Z,91.70
2018-05-21T06:06:01.247Z,91.90
2018-05-21T06:08:28.692Z,91.60
2018-05-21T06:10:56.903Z,91.50
2018-05-21T06:13:24.344Z,91.50
2018-05-21T06:15:51.801Z,91.90
2018-05-21T06:18:19.246Z,91.70
2018-05-21T06:20:46.709Z,91.70
2018-05-21T06:23:14.150Z,91.60
2018-05-21T06:25:42.368Z,91.40
2018-05-21T06:28:09.811Z,91.40
2018-05-21T06:30:37.253Z,91.40
2018-05-21T06:33:04.704Z,91.40
2018-05-21T06:35:32.922Z,91.20
2018-05-21T06:38:00.374Z,91.20
2018-05-21T06:40:27.823Z,90.80
2018-05-21T06:42:55.270Z,91.10
2018-05-21T06:45:22.728Z,90.90
2018-05-21T06:47:50.245Z,91.00
2018-05-21T06:50:17.618Z,90.80
2018-05-21T06:52:45.836Z,90.30
2018-05-21T06:55:13.293Z,90.20
2018-05-21T06:57:40.753Z,90.40
2018-05-21T07:00:08.214Z,90.10
2018-05-21T07:02:35.650Z,90.40
2018-05-21T07:05:03.106Z,90.30
2018-05-21T07:07:30.566Z,90.60
2018-05-21T07:09:58.019Z,90.50
2018-05-21T07:12:25.459Z,90.50
2018-05-21T07:14:52.911Z,90.30
2018-05-21T07:17:21.120Z,90.20
2018-05-21T07:19:48.574Z,90.20
2018-05-21T07:22:16.018Z,90.30
2018-05-21T07:24:43.479Z,89.00
2018-05-21T07:27:10.921Z,87.80
2018-05-21T07:29:39.119Z,86.70
2018-05-21T07:32:06.578Z,86.70
2018-05-21T07:34:34.026Z,86.00
2018-05-21T07:37:01.486Z,84.60
2018-05-21T07:39:28.937Z,85.00
2018-05-21T07:41:56.381Z,84.90
2018-05-21T07:44:23.833Z,86.00
2018-05-21T07:46:52.042Z,84.80
2018-05-21T07:49:19.482Z,84.70
2018-05-21T07:51:46.953Z,84.60
2018-05-21T07:54:14.400Z,84.20
2018-05-21T07:56:41.844Z,83.90
2018-05-21T07:59:09.288Z,82.70
2018-05-21T08:01:37.503Z,82.10
2018-05-21T08:04:04.946Z,82.00
2018-05-21T08:06:32.394Z,78.60
2018-05-21T08:08:59.842Z,82.20
2018-05-21T08:11:28.063Z,77.90
2018-05-21T08:13:55.503Z,77.90
2018-05-21T08:16:22.960Z,77.40
2018-05-21T08:18:50.405Z,77.20
2018-05-21T08:21:17.854Z,75.60
2018-05-21T08:23:45.298Z,74.20
2018-05-21T08:26:13.522Z,72.00
2018-05-21T08:28:40.969Z,72.00
2018-05-21T08:31:08.417Z,70.70
2018-05-21T08:33:35.868Z,69.70
2018-05-21T08:36:03.946Z,69.00
2018-05-21T08:38:31.375Z,68.90
2018-05-21T08:40:59.587Z,67.20
2018-05-21T08:43:27.046Z,67.20
2018-05-21T08:45:54.491Z,67.20
2018-05-21T08:48:21.985Z,66.90
2018-05-21T08:50:49.391Z,65.40
2018-05-21T08:53:16.847Z,64.20
2018-05-21T08:55:44.294Z,64.30
2018-05-21T08:58:12.507Z,65.60
2018-05-21T09:00:39.962Z,65.60
2018-05-21T09:03:07.407Z,63.70
2018-05-21T09:05:34.860Z,63.40
2018-05-21T09:08:02.309Z,64.90
2018-05-21T09:10:29.763Z,63.50
2018-05-21T09:12:57.215Z,64.10
2018-05-21T09:15:24.661Z,63.60
2018-05-21T09:17:52.882Z,62.90
2018-05-21T09:20:20.330Z,62.80
2018-05-21T09:22:47.787Z,63.10
2018-05-21T09:25:15.228Z,63.60
2018-05-21T09:27:42.682Z,63.40
2018-05-21T09:30:10.131Z,61.70
2018-05-21T09:32:38.348Z,63.00
2018-05-21T09:35:05.800Z,62.90
2018-05-21T09:37:33.251Z,63.80
2018-05-21T09:40:00.699Z,61.80
2018-05-21T09:42:28.143Z,59.60
2018-05-21T09:44:55.606Z,63.10
2018-05-21T09:47:23.090Z,61.00
2018-05-21T09:49:50.550Z,59.40
2018-05-21T09:52:18.798Z,61.70
2018-05-21T09:54:46.253Z,61.50
2018-05-21T09:57:13.694Z,59.80
2018-05-21T09:59:41.915Z,59.60
2018-05-21T10:02:09.372Z,59.50
2018-05-21T10:04:36.829Z,58.50
2018-05-21T10:07:04.268Z,58.50
2018-05-21T10:09:31.732Z,57.70
2018-05-21T10:11:59.186Z,59.50
2018-05-21T10:14:26.837Z,58.70
2018-05-21T10:16:54.266Z,58.10
2018-05-21T10:19:22.507Z,55.00
2018-05-21T10:21:51.330Z,55.00
2018-05-21T10:24:18.793Z,54.10
2018-05-21T10:26:46.219Z,52.90
2018-05-21T10:29:13.686Z,51.10
2018-05-21T10:31:41.110Z,50.40
2018-05-21T10:34:08.571Z,51.60
2018-05-21T10:36:36.028Z,52.20
2018-05-21T10:39:03.680Z,49.10
2018-05-21T10:41:31.125Z,51.30
2018-05-21T10:43:58.572Z,49.00
2018-05-21T10:46:26.029Z,50.60
2018-05-21T10:48:54.235Z,50.20
2018-05-21T10:51:21.699Z,50.20
2018-05-21T10:53:49.134Z,50.30
2018-05-21T10:56:16.649Z,50.50
2018-05-21T10:58:44.035Z,51.30
2018-05-21T11:01:11.479Z,51.60
2018-05-21T11:03:39.679Z,49.20
2018-05-21T11:06:07.133Z,49.20
2018-05-21T11:08:34.570Z,52.10
2018-05-21T11:11:02.785Z,54.40
2018-05-21T11:13:30.226Z,54.30
2018-05-21T11:15:57.678Z,52.50
2018-05-21T11:18:25.116Z,54.00
2018-05-21T11:20:53.331Z,52.50
2018-05-21T11:23:20.771Z,52.40
2018-05-21T11:25:48.218Z,54.20
2018-05-21T11:28:15.655Z,56.60
2018-05-21T11:30:43.866Z,56.70
2018-05-21T11:33:11.306Z,56.70
2018-05-21T11:35:38.755Z,59.10
2018-05-21T11:38:06.196Z,61.20
2018-05-21T11:40:34.408Z,58.40
2018-05-21T11:43:01.863Z,58.40
2018-05-21T11:45:29.310Z,54.90
2018-05-21T11:47:56.751Z,56.10
2018-05-21T11:50:24.963Z,58.70
2018-05-21T11:52:52.412Z,58.60
2018-05-21T11:55:19.850Z,59.30
2018-05-21T11:57:47.284Z,61.70
2018-05-21T12:00:15.497Z,61.10
2018-05-21T12:02:42.940Z,61.10
2018-05-21T12:05:11.141Z,58.20
2018-05-21T12:07:38.634Z,58.00
2018-05-21T12:10:06.030Z,59.70
2018-05-21T12:12:33.474Z,59.50
2018-05-21T12:15:01.691Z,60.60
2018-05-21T12:17:29.132Z,60.50
2018-05-21T12:19:56.568Z,59.50
2018-05-21T12:22:24.880Z,61.40
2018-05-21T12:24:52.215Z,61.40
2018-05-21T12:27:19.662Z,61.70
2018-05-21T12:29:47.108Z,63.20
2018-05-21T12:32:15.859Z,66.30
2018-05-21T12:34:43.307Z,66.30
2018-05-21T12:37:10.758Z,68.90
2018-05-21T12:39:38.199Z,68.20
2018-05-21T12:42:05.647Z,68.30
2018-05-21T12:44:33.083Z,68.70
2018-05-21T12:47:01.291Z,71.40
2018-05-21T12:49:28.733Z,71.30
2018-05-21T12:51:56.174Z,72.60
2018-05-21T12:54:23.614Z,76.40
2018-05-21T12:56:51.059Z,74.40
2018-05-21T12:59:18.500Z,76.40
2018-05-21T13:01:45.948Z,78.00
2018-05-21T13:04:13.383Z,77.80
2018-05-21T13:06:40.830Z,80.20
2018-05-21T13:09:08.263Z,78.20
2018-05-21T13:11:36.467Z,79.00
2018-05-21T13:14:03.928Z,79.00
2018-05-21T13:16:31.374Z,79.40
2018-05-21T13:18:58.813Z,80.70
2018-05-21T13:21:27.031Z,79.80
2018-05-21T13:23:54.475Z,79.70
2018-05-21T13:26:21.915Z,79.80
2018-05-21T13:28:49.366Z,80.40
2018-05-21T13:31:16.823Z,80.90
2018-05-21T13:33:45.030Z,80.30
2018-05-21T13:36:12.460Z,80.30
2018-05-21T13:38:39.911Z,81.00
2018-05-21T13:41:08.114Z,82.00
2018-05-21T13:43:35.564Z,81.90
2018-05-21T13:46:02.996Z,83.70
2018-05-21T13:48:31.203Z,84.90
2018-05-21T13:50:58.647Z,84.80
2018-05-21T13:53:26.094Z,83.10
2018-05-21T13:55:53.526Z,80.50
2018-05-21T13:58:20.979Z,78.50
2018-05-21T14:00:48.414Z,79.90
2018-05-21T14:03:15.860Z,81.10
2018-05-21T14:05:43.328Z,79.40
2018-05-21T14:10:45.479Z,81.30
2018-05-21T14:13:12.923Z,81.30
2018-05-21T14:15:40.355Z,77.80
2018-05-21T14:18:07.805Z,79.50
2018-05-21T14:20:35.248Z,80.20
2018-05-21T14:23:02.690Z,80.50
2018-05-21T14:25:30.179Z,74.70
2018-05-21T14:27:57.573Z,75.30
2018-05-21T14:30:25.015Z,73.40
2018-05-21T14:32:53.227Z,73.40
2018-05-21T14:35:20.670Z,73.40
2018-05-21T14:37:48.114Z,75.00
2018-05-21T14:40:15.555Z,73.80
2018-05-21T14:42:43.779Z,74.60
2018-05-21T14:45:11.222Z,74.40
2018-05-21T14:47:38.658Z,73.60
2018-05-21T14:50:06.115Z,74.80
2018-05-21T14:52:33.549Z,76.10
2018-05-21T14:55:01.822Z,77.10
2018-05-21T14:57:29.202Z,76.40
2018-05-21T14:59:56.658Z,74.90
2018-05-21T15:02:24.098Z,74.20
2018-05-21T15:04:52.315Z,71.80
2018-05-21T15:07:19.750Z,71.80
2018-05-21T15:09:47.195Z,72.30
2018-05-21T15:12:15.398Z,74.20
2018-05-21T15:14:42.846Z,74.20
2018-05-21T15:17:10.289Z,74.30
2018-05-21T15:19:38.498Z,74.90
2018-05-21T15:22:05.996Z,74.80
2018-05-21T15:24:33.381Z,76.00
2018-05-21T15:27:00.827Z,78.50
2018-05-21T15:29:29.035Z,76.70
2018-05-21T15:31:56.479Z,76.60
2018-05-21T15:34:23.924Z,76.80
2018-05-21T15:36:52.138Z,76.30
2018-05-21T15:39:19.579Z,76.30
2018-05-21T15:41:47.021Z,76.20
2018-05-21T15:44:14.456Z,75.30
2018-05-21T15:46:42.669Z,73.40
2018-05-21T15:49:10.106Z,73.40
2018-05-21T15:51:37.548Z,74.20
2018-05-21T15:54:05.760Z,72.30
2018-05-21T15:56:33.193Z,72.20
2018-05-21T15:59:00.631Z,72.60
2018-05-21T16:01:28.847Z,63.70
2018-05-21T16:03:56.289Z,63.70
2018-05-21T16:06:23.743Z,66.10
2018-05-21T16:08:51.182Z,68.30
2018-05-21T16:11:19.408Z,66.80
2018-05-21T16:13:46.842Z,66.70
2018-05-21T16:16:14.286Z,65.20
2018-05-21T16:18:41.723Z,63.70
2018-05-21T16:21:09.939Z,67.40
2018-05-21T16:23:37.372Z,67.40
2018-05-21T16:26:04.819Z,66.70
2018-05-21T16:28:33.027Z,68.40
2018-05-21T16:31:00.471Z,68.40
2018-05-21T16:33:27.922Z,69.90
2018-05-21T16:35:56.126Z,72.50
2018-05-21T16:38:23.571Z,72.40
2018-05-21T16:40:51.006Z,72.70
2018-05-21T16:43:18.449Z,72.20
2018-05-21T16:45:46.663Z,73.70
2018-05-21T16:48:14.095Z,73.70
2018-05-21T16:50:41.547Z,74.10
2018-05-21T16:53:09.755Z,67.60
2018-05-21T16:55:37.208Z,67.60
2018-05-21T16:58:04.630Z,66.10
2018-05-21T17:00:32.834Z,64.60
2018-05-21T17:03:00.280Z,64.60
2018-05-21T17:05:27.751Z,64.10
2018-05-21T17:07:55.202Z,64.60
2018-05-21T17:10:22.638Z,63.40
2018-05-21T17:12:50.864Z,63.80
2018-05-21T17:15:18.300Z,63.80
2018-05-21T17:17:45.747Z,62.40
2018-05-21T17:20:13.185Z,62.90
2018-05-21T17:22:41.390Z,61.60
2018-05-21T17:25:08.824Z,61.50
2018-05-21T17:27:36.271Z,61.60
2018-05-21T17:30:04.478Z,60.20
2018-05-21T17:32:31.932Z,60.10
2018-05-21T17:34:59.364Z,58.40
2018-05-21T17:37:27.570Z,59.60
2018-05-21T17:39:55.014Z,59.50
2018-05-21T17:42:22.468Z,61.80
2018-05-21T17:44:50.654Z,62.10
2018-05-21T17:47:18.109Z,62.00
2018-05-21T17:49:45.548Z,64.30
2018-05-21T17:52:13.000Z,60.40
2018-05-21T17:54:41.199Z,64.10
2018-05-21T17:57:08.651Z,64.10
2018-05-21T17:59:36.085Z,64.80
2018-05-21T18:02:04.292Z,66.40
2018-05-21T18:04:31.724Z,66.40
2018-05-21T18:06:59.930Z,66.10
2018-05-21T18:09:27.374Z,66.10
2018-05-21T18:11:54.811Z,65.30
2018-05-21T18:14:23.027Z,66.50
2018-05-21T18:16:50.465Z,66.40
2018-05-21T18:19:17.917Z,65.60
2018-05-21T18:21:45.346Z,66.60
2018-05-21T18:24:13.564Z,67.40
2018-05-21T18:26:40.995Z,67.40
2018-05-21T18:29:08.447Z,65.80
2018-05-21T18:31:36.650Z,65.50
2018-05-21T18:34:04.105Z,65.40
2018-05-21T18:36:31.545Z,66.50
2018-05-21T18:38:58.995Z,66.90
2018-05-21T18:41:27.181Z,67.00
2018-05-21T18:43:54.623Z,67.00
2018-05-21T18:46:22.825Z,69.60
2018-05-21T18:48:50.278Z,69.50
2018-05-21T18:51:17.711Z,69.30
2018-05-21T18:53:46.007Z,70.00
2018-05-21T18:56:13.346Z,70.00
2018-05-21T18:58:41.551Z,71.50
2018-05-21T19:01:08.987Z,71.50
2018-05-21T19:03:36.432Z,72.00
2018-05-21T19:06:04.651Z,73.60
2018-05-21T19:08:32.077Z,73.50
2018-05-21T19:10:59.514Z,74.30
2018-05-21T19:13:27.728Z,75.20
2018-05-21T19:15:55.166Z,75.10
2018-05-21T19:18:22.609Z,75.60
2018-05-21T19:20:50.821Z,76.50
2018-05-21T19:23:18.258Z,76.50
2018-05-21T19:25:45.714Z,77.10
2018-05-21T19:28:13.147Z,78.60
2018-05-21T19:30:41.355Z,78.30
2018-05-21T19:33:08.807Z,78.30
2018-05-21T19:35:36.257Z,79.30
2018-05-21T19:38:03.687Z,79.10
2018-05-21T19:40:31.899Z,81.10
2018-05-21T19:42:59.336Z,80.80
2018-05-21T19:45:27.554Z,81.10
2018-05-21T19:47:54.981Z,81.00
2018-05-21T19:50:22.439Z,80.40
2018-05-21T19:52:49.872Z,81.30
2018-05-21T19:55:18.088Z,80.20
2018-05-21T19:57:45.527Z,80.20
2018-05-21T20:00:12.971Z,79.80
2018-05-21T20:02:41.176Z,80.40
2018-05-21T20:05:08.619Z,80.40
2018-05-21T20:07:36.062Z,79.90
2018-05-21T20:10:03.502Z,81.10
2018-05-21T20:12:31.703Z,80.90
2018-05-21T20:14:59.159Z,80.90
2018-05-21T20:17:26.588Z,83.10
2018-05-21T20:19:54.797Z,80.20
2018-05-21T20:22:22.230Z,79.80
2018-05-21T20:24:50.448Z,80.20
2018-05-21T20:27:17.886Z,80.20
2018-05-21T20:29:45.342Z,80.40
2018-05-21T20:32:12.791Z,80.90
2018-05-21T20:34:40.983Z,81.60
2018-05-21T20:37:08.488Z,81.50
2018-05-21T20:39:35.858Z,82.00
2018-05-21T20:42:04.082Z,83.20
2018-05-21T20:44:31.511Z,83.00
2018-05-21T20:46:58.965Z,82.40
2018-05-21T20:49:27.157Z,82.10
2018-05-21T20:51:54.602Z,82.00
2018-05-21T20:54:22.069Z,81.80
2018-05-21T20:56:49.520Z,81.80
2018-05-21T20:59:16.950Z,82.10
2018-05-21T21:01:45.172Z,84.60
2018-05-21T21:04:12.608Z,84.50
2018-05-21T21:06:40.058Z,84.60
2018-05-21T21:09:07.494Z,84.10
2018-05-21T21:11:35.708Z,84.00
2018-05-21T21:14:03.148Z,84.00
2018-05-21T21:16:30.600Z,83.50
2018-05-21T21:18:58.794Z,85.50
2018-05-21T21:21:26.254Z,85.50
2018-05-21T21:23:53.697Z,86.50
2018-05-21T21:26:21.140Z,87.00
2018-05-21T21:28:49.341Z,88.00
2018-05-21T21:31:16.792Z,87.90
2018-05-21T21:33:44.228Z,87.30
2018-05-21T21:36:12.435Z,85.90
2018-05-21T21:38:39.866Z,85.80
2018-05-21T21:41:07.315Z,86.20
2018-05-21T21:43:35.525Z,87.10
2018-05-21T21:46:02.958Z,87.10
2018-05-21T21:48:30.401Z,88.30
2018-05-21T21:50:58.603Z,88.70
2018-05-21T21:53:26.051Z,88.60
2018-05-21T21:55:53.491Z,89.00
2018-05-21T21:58:21.697Z,89.10
2018-05-21T22:00:49.132Z,89.10
2018-05-21T22:03:17.338Z,89.00
2018-05-21T22:05:44.779Z,88.80
2018-05-21T22:08:12.218Z,87.20
2018-05-21T22:10:40.419Z,88.60
2018-05-21T22:13:07.872Z,88.40
2018-05-21T22:15:35.311Z,89.00
2018-05-21T22:18:03.522Z,89.30
2018-05-21T22:20:30.950Z,89.30
2018-05-21T22:22:58.393Z,89.70
2018-05-21T22:25:26.602Z,90.10
2018-05-21T22:27:54.047Z,90.10
2018-05-21T22:30:21.483Z,89.90
2018-05-21T22:32:49.693Z,89.70
2018-05-21T22:37:51.879Z,90.60
2018-05-21T22:40:19.325Z,90.30
2018-05-21T22:42:46.769Z,90.50
2018-05-21T22:45:14.222Z,90.60
2018-05-21T22:47:42.435Z,90.00
2018-05-21T22:50:09.874Z,90.00
2018-05-21T22:52:37.324Z,90.00
2018-05-21T22:55:04.755Z,90.00
2018-05-21T22:57:32.974Z,90.40
2018-05-21T23:00:00.407Z,90.30
2018-05-21T23:02:27.850Z,90.60
2018-05-21T23:04:56.059Z,90.00
2018-05-21T23:07:23.501Z,90.00
2018-05-21T23:09:50.939Z,90.30
2018-05-21T23:12:19.963Z,89.60
2018-05-21T23:14:47.411Z,89.50
2018-05-21T23:17:15.290Z,89.20
2018-05-21T23:19:42.739Z,88.30
2018-05-21T23:22:12.057Z,88.40
2018-05-21T23:24:39.502Z,89.70
2018-05-21T23:27:06.944Z,90.10
2018-05-21T23:29:34.413Z,90.50
2018-05-21T23:32:01.839Z,90.50
2018-05-21T23:34:30.045Z,90.60
2018-05-21T23:36:57.482Z,90.60
2018-05-21T23:39:25.699Z,90.70
2018-05-21T23:41:53.142Z,90.70
2018-05-21T23:44:20.587Z,90.80
2018-05-21T23:46:48.027Z,90.90
2018-05-21T23:49:16.231Z,90.90
2018-05-21T23:51:43.666Z,90.90
2018-05-21T23:54:11.114Z,91.00
2018-05-21T23:56:38.554Z,90.90
2018-05-21T23:59:05.991Z,90.50
